createdAt,value
2018-02-09T00:00:16.059Z,0
2018-02-09T00:01:24.980Z,0
2018-02-09T00:02:33.803Z,0
2018-02-09T00:03:42.628Z,0
2018-02-09T00:04:51.453Z,0
2018-02-09T00:06:00.275Z,0
2018-02-09T00:07:09.098Z,0
2018-02-09T00:08:17.925Z,0
2018-02-09T00:09:26.744Z,0
2018-02-09T00:10:35.566Z,0
2018-02-09T00:11:44.388Z,0
2018-02-09T00:12:53.360Z,0
2018-02-09T00:14:02.181Z,0
2018-02-09T00:15:11.005Z,0
2018-02-09T00:16:19.827Z,0
2018-02-09T00:17:28.924Z,0
2018-02-09T00:18:37.846Z,0
2018-02-09T00:19:46.670Z,0
2018-02-09T00:20:55.493Z,0
2018-02-09T00:22:04.601Z,0
2018-02-09T00:23:13.424Z,0
2018-02-09T00:24:22.398Z,0
2018-02-09T00:25:31.221Z,0
2018-02-09T00:26:40.042Z,0
2018-02-09T00:28:20.924Z,0
2018-02-09T00:29:29.847Z,0
2018-02-09T00:30:38.671Z,0
2018-02-09T00:31:47.495Z,0
2018-02-09T00:32:56.314Z,0
2018-02-09T00:34:05.136Z,0
2018-02-09T00:35:14.059Z,0
2018-02-09T00:36:22.879Z,0
2018-02-09T00:37:31.703Z,0
2018-02-09T00:38:40.525Z,0
2018-02-09T00:39:49.347Z,0
2018-02-09T00:40:58.172Z,0
2018-02-09T00:42:06.992Z,0
2018-02-09T00:43:15.817Z,0
2018-02-09T00:44:24.640Z,0
2018-02-09T00:45:33.462Z,0
2018-02-09T00:46:42.385Z,0
2018-02-09T00:47:51.206Z,0
2018-02-09T00:49:00.297Z,0
2018-02-09T00:50:09.123Z,0
2018-02-09T00:51:17.945Z,0
2018-02-09T00:52:26.768Z,0
2018-02-09T00:53:35.590Z,0
2018-02-09T00:54:44.473Z,0
2018-02-09T00:55:53.566Z,0
2018-02-09T00:57:02.387Z,0
2018-02-09T00:58:11.210Z,0
2018-02-09T00:59:20.034Z,0
2018-02-09T01:00:28.853Z,0
2018-02-09T01:01:37.676Z,0
2018-02-09T01:02:46.502Z,0
2018-02-09T01:03:55.371Z,0
2018-02-09T01:05:04.194Z,0
2018-02-09T01:06:13.018Z,0
2018-02-09T01:07:21.840Z,0
2018-02-09T01:08:30.661Z,0
2018-02-09T01:09:39.584Z,0
2018-02-09T01:10:48.405Z,0
2018-02-09T01:11:57.227Z,0
2018-02-09T01:13:06.321Z,0
2018-02-09T01:14:15.141Z,0
2018-02-09T01:15:23.963Z,0
2018-02-09T01:16:32.788Z,0
2018-02-09T01:17:41.610Z,0
2018-02-09T01:18:50.430Z,0
2018-02-09T01:19:59.252Z,0
2018-02-09T01:21:08.174Z,0
2018-02-09T01:22:16.992Z,0
2018-02-09T01:23:25.815Z,0
2018-02-09T01:24:34.640Z,0
2018-02-09T01:25:43.466Z,0
2018-02-09T01:26:52.338Z,0
2018-02-09T01:28:01.160Z,0
2018-02-09T01:29:10.254Z,0
2018-02-09T01:30:19.075Z,0
2018-02-09T01:31:27.897Z,0
2018-02-09T01:32:36.821Z,0
2018-02-09T01:33:45.923Z,0
2018-02-09T01:34:54.737Z,0
2018-02-09T01:36:03.559Z,0
2018-02-09T01:37:12.382Z,0
2018-02-09T01:38:21.354Z,0
2018-02-09T01:39:30.177Z,0
2018-02-09T01:40:38.999Z,0
2018-02-09T01:41:48.094Z,0
2018-02-09T01:42:56.917Z,0
2018-02-09T01:44:05.740Z,0
2018-02-09T01:45:14.831Z,0
2018-02-09T01:46:23.658Z,0
2018-02-09T01:47:32.480Z,0
2018-02-09T01:48:41.303Z,0
2018-02-09T01:49:50.372Z,0
2018-02-09T01:50:59.193Z,0
2018-02-09T01:52:08.019Z,0
2018-02-09T01:53:16.836Z,0
2018-02-09T01:54:25.658Z,0
2018-02-09T01:55:34.630Z,0
2018-02-09T01:56:43.455Z,0
2018-02-09T01:57:52.272Z,0
2018-02-09T01:59:01.095Z,0
2018-02-09T02:00:09.917Z,0
2018-02-09T02:01:51.100Z,0
2018-02-09T02:02:59.921Z,0
2018-02-09T02:04:08.740Z,0
2018-02-09T02:05:17.571Z,0
2018-02-09T02:06:26.392Z,0
2018-02-09T02:07:35.213Z,0
2018-02-09T02:08:44.036Z,0
2018-02-09T02:09:52.858Z,0
2018-02-09T02:11:01.679Z,0
2018-02-09T02:12:10.800Z,0
2018-02-09T02:13:19.623Z,0
2018-02-09T02:14:28.444Z,0
2018-02-09T02:15:37.315Z,0
2018-02-09T02:16:46.139Z,0
2018-02-09T02:17:55.061Z,0
2018-02-09T02:19:03.881Z,0
2018-02-09T02:20:12.702Z,0
2018-02-09T02:21:21.526Z,0
2018-02-09T02:22:30.348Z,0
2018-02-09T02:23:39.271Z,0
2018-02-09T02:24:48.097Z,0
2018-02-09T02:25:56.913Z,0
2018-02-09T02:27:05.735Z,0
2018-02-09T02:28:14.569Z,0
2018-02-09T02:29:23.680Z,0
2018-02-09T02:30:32.503Z,0
2018-02-09T02:31:41.326Z,0
2018-02-09T02:32:50.147Z,0
2018-02-09T02:33:58.970Z,0
2018-02-09T02:35:08.092Z,0
2018-02-09T02:36:17.195Z,0
2018-02-09T02:37:26.014Z,0
2018-02-09T02:38:34.835Z,0
2018-02-09T02:39:43.662Z,0
2018-02-09T02:40:52.631Z,0
2018-02-09T02:42:01.760Z,0
2018-02-09T02:43:10.550Z,0
2018-02-09T02:44:19.646Z,0
2018-02-09T02:45:28.467Z,0
2018-02-09T02:46:37.438Z,0
2018-02-09T02:47:46.261Z,0
2018-02-09T02:48:55.362Z,0
2018-02-09T02:50:04.184Z,0
2018-02-09T02:51:13.006Z,0
2018-02-09T02:52:21.828Z,0
2018-02-09T02:53:30.648Z,0
2018-02-09T02:54:39.471Z,0
2018-02-09T02:55:48.295Z,0
2018-02-09T02:56:57.117Z,0
2018-02-09T02:58:06.041Z,0
2018-02-09T02:59:15.136Z,0
2018-02-09T03:00:23.956Z,0
2018-02-09T03:01:32.780Z,0
2018-02-09T03:02:41.603Z,0
2018-02-09T03:03:50.523Z,0
2018-02-09T03:04:59.343Z,0
2018-02-09T03:06:08.167Z,0
2018-02-09T03:07:16.987Z,0
2018-02-09T03:08:25.808Z,0
2018-02-09T03:09:34.731Z,0
2018-02-09T03:10:43.554Z,0
2018-02-09T03:11:52.374Z,0
2018-02-09T03:13:01.196Z,0
2018-02-09T03:14:10.019Z,0
2018-02-09T03:15:18.892Z,0
2018-02-09T03:16:27.989Z,0
2018-02-09T03:17:36.813Z,0
2018-02-09T03:18:45.635Z,0
2018-02-09T03:19:54.458Z,0
2018-02-09T03:21:03.382Z,0
2018-02-09T03:22:12.204Z,0
2018-02-09T03:23:21.300Z,0
2018-02-09T03:24:30.120Z,0
2018-02-09T03:25:38.944Z,0
2018-02-09T03:26:47.872Z,0
2018-02-09T03:27:56.687Z,0
2018-02-09T03:29:05.510Z,0
2018-02-09T03:30:14.335Z,0
2018-02-09T03:31:23.158Z,0
2018-02-09T03:32:32.279Z,0
2018-02-09T03:33:41.098Z,0
2018-02-09T03:34:49.924Z,0
2018-02-09T03:35:58.740Z,0
2018-02-09T03:37:07.563Z,0
2018-02-09T03:38:16.485Z,0
2018-02-09T03:39:25.306Z,0
2018-02-09T03:40:34.144Z,0
2018-02-09T03:41:42.950Z,0
2018-02-09T03:42:51.776Z,0
2018-02-09T03:44:00.844Z,0
2018-02-09T03:45:09.665Z,0
2018-02-09T03:46:18.758Z,0
2018-02-09T03:47:27.576Z,0
2018-02-09T03:48:36.399Z,0
2018-02-09T03:49:45.225Z,0
2018-02-09T03:50:54.319Z,0
2018-02-09T03:52:06.117Z,0
2018-02-09T03:53:14.939Z,0
2018-02-09T03:54:23.763Z,0
2018-02-09T03:55:32.634Z,0
2018-02-09T03:56:41.454Z,0
2018-02-09T03:57:50.274Z,0
2018-02-09T03:58:59.096Z,0
2018-02-09T04:00:07.921Z,0
2018-02-09T04:01:17.017Z,0
2018-02-09T04:02:25.838Z,0
2018-02-09T04:03:34.716Z,0
2018-02-09T04:04:43.485Z,0
2018-02-09T04:05:52.306Z,0
2018-02-09T04:07:01.124Z,0
2018-02-09T04:08:09.948Z,0
2018-02-09T04:09:18.771Z,0
2018-02-09T04:10:27.589Z,0
2018-02-09T04:11:36.684Z,0
2018-02-09T04:12:45.506Z,0
2018-02-09T04:13:54.326Z,0
2018-02-09T04:15:03.427Z,0
2018-02-09T04:16:12.526Z,0
2018-02-09T04:17:21.350Z,0
2018-02-09T04:18:30.272Z,0
2018-02-09T04:19:39.094Z,0
2018-02-09T04:20:48.188Z,0
2018-02-09T04:21:57.009Z,0
2018-02-09T04:23:05.835Z,0
2018-02-09T04:24:14.956Z,0
2018-02-09T04:25:23.777Z,0
2018-02-09T04:26:32.599Z,0
2018-02-09T04:27:41.420Z,0
2018-02-09T04:28:50.243Z,0
2018-02-09T04:29:59.316Z,0
2018-02-09T04:31:08.408Z,0
2018-02-09T04:32:17.227Z,0
2018-02-09T04:33:26.052Z,0
2018-02-09T04:34:34.873Z,0
2018-02-09T04:35:43.694Z,0
2018-02-09T04:36:52.517Z,0
2018-02-09T04:38:01.611Z,0
2018-02-09T04:39:10.434Z,0
2018-02-09T04:40:19.256Z,0
2018-02-09T04:41:28.078Z,0
2018-02-09T04:42:36.919Z,0
2018-02-09T04:43:45.722Z,0
2018-02-09T04:44:54.544Z,0
2018-02-09T04:46:03.364Z,0
2018-02-09T04:47:12.334Z,0
2018-02-09T04:48:21.158Z,0
2018-02-09T04:49:30.003Z,0
2018-02-09T04:50:38.797Z,0
2018-02-09T04:51:47.890Z,0
2018-02-09T04:52:56.812Z,0
2018-02-09T04:54:05.634Z,0
2018-02-09T04:55:14.453Z,0
2018-02-09T04:56:23.273Z,0
2018-02-09T04:57:32.095Z,0
2018-02-09T04:58:41.166Z,0
2018-02-09T04:59:49.987Z,0
2018-02-09T05:00:58.805Z,0
2018-02-09T05:02:07.625Z,0
2018-02-09T05:03:16.445Z,0
2018-02-09T05:04:25.641Z,0
2018-02-09T05:05:34.463Z,0
2018-02-09T05:06:43.282Z,0
2018-02-09T05:07:52.104Z,0
2018-02-09T05:09:00.927Z,0
2018-02-09T05:10:09.848Z,0
2018-02-09T05:11:18.670Z,0
2018-02-09T05:12:27.492Z,0
2018-02-09T05:13:36.314Z,0
2018-02-09T05:14:45.135Z,0
2018-02-09T05:15:54.255Z,0
2018-02-09T05:17:03.076Z,0
2018-02-09T05:18:11.898Z,0
2018-02-09T05:19:20.718Z,0
2018-02-09T05:20:29.536Z,0
2018-02-09T05:21:38.714Z,0
2018-02-09T05:22:47.529Z,0
2018-02-09T05:23:56.350Z,0
2018-02-09T05:25:05.173Z,0
2018-02-09T05:26:13.993Z,0
2018-02-09T05:27:22.912Z,0
2018-02-09T05:28:31.731Z,0
2018-02-09T05:29:40.553Z,0
2018-02-09T05:30:49.375Z,0
2018-02-09T05:31:58.468Z,0
2018-02-09T05:33:07.590Z,0
2018-02-09T05:34:16.410Z,0
2018-02-09T05:35:25.231Z,0
2018-02-09T05:36:34.053Z,0
2018-02-09T05:37:42.872Z,0
2018-02-09T05:38:51.842Z,0
2018-02-09T05:40:00.663Z,0
2018-02-09T05:41:09.490Z,0
2018-02-09T05:42:18.583Z,0
2018-02-09T05:43:27.404Z,0
2018-02-09T05:44:36.527Z,0
2018-02-09T05:45:45.353Z,0
2018-02-09T05:46:54.166Z,0
2018-02-09T05:48:03.264Z,0
2018-02-09T05:49:12.084Z,0
2018-02-09T05:50:20.958Z,0
2018-02-09T05:51:29.780Z,0
2018-02-09T05:52:38.603Z,0
2018-02-09T05:53:47.425Z,0
2018-02-09T05:54:56.249Z,0
2018-02-09T05:56:05.170Z,0
2018-02-09T05:57:13.989Z,0
2018-02-09T05:58:22.859Z,0
2018-02-09T05:59:31.846Z,0
2018-02-09T06:00:40.687Z,0
2018-02-09T06:01:49.659Z,0
2018-02-09T06:02:58.480Z,0
2018-02-09T06:04:07.311Z,0
2018-02-09T06:05:16.132Z,0
2018-02-09T06:06:25.297Z,0
2018-02-09T06:07:34.273Z,0
2018-02-09T06:08:43.096Z,0
2018-02-09T06:09:52.192Z,0
2018-02-09T06:11:01.013Z,0
2018-02-09T06:12:09.949Z,0
2018-02-09T06:13:18.732Z,0
2018-02-09T06:14:27.554Z,0
2018-02-09T06:15:36.376Z,0
2018-02-09T06:16:45.197Z,0
2018-02-09T06:17:54.293Z,0
2018-02-09T06:19:03.416Z,0
2018-02-09T06:20:12.239Z,0
2018-02-09T06:21:21.345Z,0
2018-02-09T06:22:30.167Z,0
2018-02-09T06:23:38.988Z,0
2018-02-09T06:24:48.017Z,0
2018-02-09T06:25:56.837Z,0
2018-02-09T06:27:05.658Z,0
2018-02-09T06:28:14.485Z,0
2018-02-09T06:29:23.574Z,0
2018-02-09T06:30:33.238Z,0
2018-02-09T06:31:42.114Z,0
2018-02-09T06:32:51.555Z,0
2018-02-09T06:34:00.401Z,0
2018-02-09T06:35:09.226Z,0
2018-02-09T06:36:18.049Z,0
2018-02-09T06:37:26.869Z,0
2018-02-09T06:38:35.691Z,0
2018-02-09T06:39:44.514Z,0
2018-02-09T06:40:53.337Z,0
2018-02-09T06:42:02.314Z,0
2018-02-09T06:43:11.136Z,0
2018-02-09T06:44:19.962Z,0
2018-02-09T06:45:28.791Z,0
2018-02-09T06:46:37.623Z,5
2018-02-09T06:47:46.604Z,5
2018-02-09T06:48:55.427Z,5
2018-02-09T06:50:04.249Z,5
2018-02-09T06:51:13.071Z,5
2018-02-09T06:52:21.897Z,5
2018-02-09T06:53:31.019Z,5
2018-02-09T06:54:39.842Z,10
2018-02-09T06:55:48.669Z,10
2018-02-09T06:56:57.490Z,10
2018-02-09T06:58:06.312Z,10
2018-02-09T06:59:15.335Z,15
2018-02-09T07:00:24.157Z,15
2018-02-09T07:01:33.254Z,15
2018-02-09T07:02:42.353Z,20
2018-02-09T07:03:51.174Z,20
2018-02-09T07:05:00.046Z,20
2018-02-09T07:06:08.868Z,20
2018-02-09T07:07:17.695Z,25
2018-02-09T07:08:26.789Z,25
2018-02-09T07:09:35.609Z,25
2018-02-09T07:10:44.580Z,30
2018-02-09T07:11:53.402Z,30
2018-02-09T07:13:02.228Z,30
2018-02-09T07:14:11.051Z,35
2018-02-09T07:15:19.899Z,35
2018-02-09T07:16:28.698Z,35
2018-02-09T07:17:37.518Z,40
2018-02-09T07:18:46.341Z,40
2018-02-09T07:19:55.164Z,40
2018-02-09T07:21:03.987Z,45
2018-02-09T07:22:13.057Z,45
2018-02-09T07:23:21.880Z,50
2018-02-09T07:24:30.706Z,50
2018-02-09T07:25:39.525Z,55
2018-02-09T07:26:48.351Z,55
2018-02-09T07:27:57.323Z,60
2018-02-09T07:29:06.148Z,60
2018-02-09T07:30:14.967Z,65
2018-02-09T07:31:23.789Z,70
2018-02-09T07:32:32.614Z,70
2018-02-09T07:33:41.684Z,75
2018-02-09T07:34:50.506Z,70
2018-02-09T07:35:59.326Z,75
2018-02-09T07:37:08.152Z,75
2018-02-09T07:38:16.974Z,80
2018-02-09T07:39:25.896Z,80
2018-02-09T07:40:34.718Z,85
2018-02-09T07:41:43.539Z,85
2018-02-09T07:42:52.363Z,85
2018-02-09T07:44:01.188Z,85
2018-02-09T07:45:10.111Z,85
2018-02-09T07:46:19.215Z,80
2018-02-09T07:47:28.036Z,90
2018-02-09T07:48:36.861Z,80
2018-02-09T07:49:45.683Z,85
2018-02-09T07:50:54.657Z,80
2018-02-09T07:52:03.751Z,85
2018-02-09T07:53:12.574Z,85
2018-02-09T07:54:21.400Z,90
2018-02-09T07:55:30.222Z,90
2018-02-09T07:56:39.344Z,90
2018-02-09T07:57:48.169Z,95
2018-02-09T07:58:56.992Z,95
2018-02-09T08:00:05.813Z,95
2018-02-09T08:01:14.638Z,95
2018-02-09T08:02:23.666Z,100
2018-02-09T08:03:32.492Z,100
2018-02-09T08:04:41.315Z,100
2018-02-09T08:05:50.137Z,100
2018-02-09T08:06:58.961Z,105
2018-02-09T08:08:07.790Z,105
2018-02-09T08:09:16.607Z,105
2018-02-09T08:10:25.706Z,105
2018-02-09T08:11:34.531Z,110
2018-02-09T08:12:43.353Z,110
2018-02-09T08:13:52.474Z,110
2018-02-09T08:15:01.296Z,110
2018-02-09T08:16:10.121Z,110
2018-02-09T08:17:18.942Z,115
2018-02-09T08:18:27.767Z,115
2018-02-09T08:19:36.692Z,115
2018-02-09T08:20:45.515Z,115
2018-02-09T08:21:54.337Z,115
2018-02-09T08:23:03.161Z,120
2018-02-09T08:24:12.259Z,120
2018-02-09T08:25:21.181Z,120
2018-02-09T08:26:30.012Z,120
2018-02-09T08:27:38.827Z,120
2018-02-09T08:28:47.649Z,125
2018-02-09T08:29:56.471Z,125
2018-02-09T08:31:05.404Z,125
2018-02-09T08:32:14.219Z,125
2018-02-09T08:33:23.044Z,130
2018-02-09T08:34:32.139Z,130
2018-02-09T08:35:40.960Z,130
2018-02-09T08:36:49.935Z,130
2018-02-09T08:37:58.757Z,130
2018-02-09T08:39:07.578Z,130
2018-02-09T08:40:16.404Z,135
2018-02-09T08:41:25.508Z,135
2018-02-09T08:42:34.602Z,135
2018-02-09T08:43:43.424Z,135
2018-02-09T08:44:52.249Z,135
2018-02-09T08:46:01.072Z,135
2018-02-09T08:47:09.897Z,140
2018-02-09T08:48:19.242Z,140
2018-02-09T08:49:28.065Z,140
2018-02-09T08:50:36.944Z,140
2018-02-09T08:51:46.040Z,140
2018-02-09T08:52:54.863Z,140
2018-02-09T08:54:03.937Z,145
2018-02-09T08:55:12.760Z,145
2018-02-09T08:56:21.584Z,145
2018-02-09T08:57:30.410Z,145
2018-02-09T08:58:39.232Z,145
2018-02-09T08:59:48.154Z,150
2018-02-09T09:00:56.973Z,150
2018-02-09T09:02:05.799Z,145
2018-02-09T09:03:14.623Z,145
2018-02-09T09:04:23.450Z,150
2018-02-09T09:05:32.543Z,150
2018-02-09T09:06:41.367Z,150
2018-02-09T09:07:50.191Z,150
2018-02-09T09:08:59.012Z,150
2018-02-09T09:10:07.839Z,150
2018-02-09T09:11:16.935Z,150
2018-02-09T09:12:25.761Z,150
2018-02-09T09:13:34.584Z,150
2018-02-09T09:14:43.415Z,150
2018-02-09T09:15:52.231Z,150
2018-02-09T09:17:01.154Z,150
2018-02-09T09:18:09.978Z,150
2018-02-09T09:19:18.801Z,150
2018-02-09T09:20:27.628Z,155
2018-02-09T09:21:36.454Z,150
2018-02-09T09:22:45.277Z,150
2018-02-09T09:23:54.100Z,150
2018-02-09T09:25:02.927Z,155
2018-02-09T09:26:11.749Z,155
2018-02-09T09:27:20.572Z,155
2018-02-09T09:28:29.447Z,155
2018-02-09T09:29:38.273Z,155
2018-02-09T09:30:47.368Z,155
2018-02-09T09:31:56.191Z,155
2018-02-09T09:33:05.015Z,155
2018-02-09T09:34:13.938Z,160
2018-02-09T09:35:22.761Z,160
2018-02-09T09:36:31.587Z,160
2018-02-09T09:37:40.409Z,160
2018-02-09T09:38:49.237Z,160
2018-02-09T09:39:58.159Z,160
2018-02-09T09:41:06.986Z,160
2018-02-09T09:42:15.807Z,160
2018-02-09T09:43:24.632Z,160
2018-02-09T09:44:33.459Z,160
2018-02-09T09:45:42.282Z,160
2018-02-09T09:46:51.106Z,160
2018-02-09T09:48:00.202Z,165
2018-02-09T09:49:09.027Z,165
2018-02-09T09:50:17.850Z,170
2018-02-09T09:51:26.827Z,180
2018-02-09T09:52:35.651Z,185
2018-02-09T09:53:44.476Z,185
2018-02-09T09:54:53.299Z,180
2018-02-09T09:56:02.126Z,175
2018-02-09T09:57:11.051Z,170
2018-02-09T09:58:19.874Z,170
2018-02-09T09:59:28.973Z,170
2018-02-09T10:00:37.796Z,175
2018-02-09T10:01:46.620Z,175
2018-02-09T10:02:55.542Z,180
2018-02-09T10:04:04.367Z,180
2018-02-09T10:05:13.190Z,180
2018-02-09T10:06:22.022Z,175
2018-02-09T10:07:30.844Z,175
2018-02-09T10:08:39.771Z,175
2018-02-09T10:09:48.596Z,180
2018-02-09T10:10:57.425Z,180
2018-02-09T10:12:06.249Z,180
2018-02-09T10:13:15.075Z,185
2018-02-09T10:14:23.950Z,185
2018-02-09T10:15:32.779Z,185
2018-02-09T10:16:41.607Z,185
2018-02-09T10:17:50.431Z,185
2018-02-09T10:18:59.258Z,190
2018-02-09T10:20:08.457Z,190
2018-02-09T10:21:17.284Z,190
2018-02-09T10:22:26.383Z,190
2018-02-09T10:23:35.214Z,190
2018-02-09T10:24:44.310Z,190
2018-02-09T10:25:53.235Z,195
2018-02-09T10:27:02.060Z,195
2018-02-09T10:28:10.885Z,195
2018-02-09T10:29:19.711Z,195
2018-02-09T10:30:28.539Z,200
2018-02-09T10:31:37.624Z,200
2018-02-09T10:32:46.440Z,200
2018-02-09T10:33:55.267Z,200
2018-02-09T10:35:04.096Z,200
2018-02-09T10:36:12.918Z,200
2018-02-09T10:37:21.901Z,205
2018-02-09T10:38:30.722Z,205
2018-02-09T10:39:39.549Z,205
2018-02-09T10:40:48.377Z,205
2018-02-09T10:41:57.203Z,205
2018-02-09T10:43:06.080Z,210
2018-02-09T10:44:14.904Z,210
2018-02-09T10:45:23.730Z,210
2018-02-09T10:46:32.554Z,210
2018-02-09T10:47:41.383Z,215
2018-02-09T10:48:50.308Z,215
2018-02-09T10:49:59.134Z,215
2018-02-09T10:51:07.960Z,215
2018-02-09T10:52:16.788Z,215
2018-02-09T10:53:25.614Z,225
2018-02-09T10:54:34.489Z,220
2018-02-09T10:55:43.327Z,220
2018-02-09T10:56:52.139Z,220
2018-02-09T10:58:00.965Z,225
2018-02-09T10:59:09.791Z,225
2018-02-09T11:00:18.769Z,225
2018-02-09T11:01:27.594Z,225
2018-02-09T11:02:36.422Z,225
2018-02-09T11:03:45.248Z,225
2018-02-09T11:04:54.079Z,225
2018-02-09T11:06:02.950Z,225
2018-02-09T11:07:11.775Z,230
2018-02-09T11:08:20.880Z,230
2018-02-09T11:09:29.707Z,230
2018-02-09T11:10:38.533Z,230
2018-02-09T11:11:47.361Z,230
2018-02-09T11:12:56.191Z,230
2018-02-09T11:14:05.014Z,230
2018-02-09T11:15:14.155Z,230
2018-02-09T11:16:22.983Z,235
2018-02-09T11:17:31.959Z,235
2018-02-09T11:18:40.785Z,240
2018-02-09T11:19:49.611Z,245
2018-02-09T11:20:58.438Z,250
2018-02-09T11:22:07.267Z,235
2018-02-09T11:23:16.401Z,225
2018-02-09T11:24:25.226Z,230
2018-02-09T11:25:34.056Z,240
2018-02-09T11:26:42.879Z,255
2018-02-09T11:27:51.708Z,270
2018-02-09T11:29:00.686Z,290
2018-02-09T11:30:09.510Z,305
2018-02-09T11:31:18.338Z,310
2018-02-09T11:32:27.164Z,325
2018-02-09T11:33:35.992Z,325
2018-02-09T11:34:44.917Z,345
2018-02-09T11:35:53.745Z,360
2018-02-09T11:37:02.574Z,360
2018-02-09T11:38:11.420Z,350
2018-02-09T11:39:20.228Z,330
2018-02-09T11:40:29.062Z,315
2018-02-09T11:41:37.890Z,305
2018-02-09T11:42:46.722Z,310
2018-02-09T11:43:55.539Z,315
2018-02-09T11:45:04.375Z,305
2018-02-09T11:46:13.351Z,310
2018-02-09T11:47:22.179Z,320
2018-02-09T11:48:31.006Z,325
2018-02-09T11:49:39.835Z,305
2018-02-09T11:50:48.670Z,290
2018-02-09T11:51:57.796Z,280
2018-02-09T11:53:06.627Z,295
2018-02-09T11:54:15.459Z,315
2018-02-09T11:55:24.353Z,320
2018-02-09T11:56:33.882Z,315
2018-02-09T11:57:42.858Z,325
2018-02-09T11:58:52.763Z,325
2018-02-09T12:00:01.924Z,315
2018-02-09T12:01:10.791Z,320
2018-02-09T12:02:19.905Z,320
2018-02-09T12:03:29.614Z,330
2018-02-09T12:04:38.447Z,340
2018-02-09T12:05:47.276Z,340
2018-02-09T12:06:56.155Z,345
2018-02-09T12:08:04.977Z,350
2018-02-09T12:09:13.959Z,350
2018-02-09T12:10:22.785Z,350
2018-02-09T12:11:31.617Z,345
2018-02-09T12:12:40.445Z,345
2018-02-09T12:13:49.276Z,345
2018-02-09T12:14:58.203Z,340
2018-02-09T12:16:07.032Z,335
2018-02-09T12:17:15.861Z,320
2018-02-09T12:18:24.963Z,315
2018-02-09T12:19:33.794Z,305
2018-02-09T12:20:42.819Z,300
2018-02-09T12:21:51.646Z,305
2018-02-09T12:23:00.474Z,305
2018-02-09T12:24:09.303Z,305
2018-02-09T12:25:18.130Z,305
2018-02-09T12:26:27.059Z,300
2018-02-09T12:27:36.162Z,295
2018-02-09T12:28:44.992Z,295
2018-02-09T12:29:53.816Z,305
2018-02-09T12:31:02.646Z,305
2018-02-09T12:32:11.478Z,310
2018-02-09T12:33:20.305Z,310
2018-02-09T12:34:29.138Z,315
2018-02-09T12:35:37.960Z,315
2018-02-09T12:36:46.793Z,315
2018-02-09T12:37:55.722Z,310
2018-02-09T12:39:04.551Z,310
2018-02-09T12:40:13.379Z,310
2018-02-09T12:41:22.206Z,310
2018-02-09T12:42:31.036Z,315
2018-02-09T12:43:39.866Z,315
2018-02-09T12:44:48.695Z,310
2018-02-09T12:45:57.525Z,310
2018-02-09T12:47:06.359Z,310
2018-02-09T12:48:15.188Z,320
2018-02-09T12:49:24.116Z,330
2018-02-09T12:50:32.949Z,325
2018-02-09T12:51:41.806Z,330
2018-02-09T12:52:50.603Z,345
2018-02-09T12:53:59.433Z,355
2018-02-09T12:55:08.365Z,375
2018-02-09T12:56:17.195Z,385
2018-02-09T12:57:26.022Z,395
2018-02-09T12:58:34.856Z,415
2018-02-09T12:59:43.684Z,435
2018-02-09T13:00:52.577Z,440
2018-02-09T13:02:01.416Z,445
2018-02-09T13:03:10.246Z,435
2018-02-09T13:04:19.082Z,435
2018-02-09T13:05:27.913Z,425
2018-02-09T13:06:37.068Z,410
2018-02-09T13:07:45.950Z,380
2018-02-09T13:08:54.780Z,355
2018-02-09T13:10:03.620Z,345
2018-02-09T13:11:12.451Z,340
2018-02-09T13:12:21.838Z,345
2018-02-09T13:13:30.871Z,495
2018-02-09T13:14:39.704Z,670
2018-02-09T13:15:48.887Z,530
2018-02-09T13:16:57.784Z,510
2018-02-09T13:18:06.669Z,470
2018-02-09T13:19:15.531Z,410
2018-02-09T13:20:24.387Z,380
2018-02-09T13:21:33.220Z,475
2018-02-09T13:22:42.352Z,450
2018-02-09T13:23:51.843Z,435
2018-02-09T13:25:00.680Z,750
2018-02-09T13:26:09.514Z,635
2018-02-09T13:27:18.363Z,350
2018-02-09T13:28:27.217Z,520
2018-02-09T13:29:36.209Z,710
2018-02-09T13:30:45.062Z,555
2018-02-09T13:31:53.897Z,480
2018-02-09T13:33:02.800Z,620
2018-02-09T13:34:11.632Z,695
2018-02-09T13:35:20.562Z,510
2018-02-09T13:36:29.398Z,340
2018-02-09T13:37:38.230Z,340
2018-02-09T13:38:47.064Z,335
2018-02-09T13:39:55.897Z,360
2018-02-09T13:41:05.004Z,695
2018-02-09T13:42:13.834Z,870
2018-02-09T13:43:22.669Z,755
2018-02-09T13:44:31.501Z,600
2018-02-09T13:45:40.335Z,505
2018-02-09T13:46:49.319Z,495
2018-02-09T13:47:58.147Z,545
2018-02-09T13:49:06.978Z,440
2018-02-09T13:50:15.809Z,360
2018-02-09T13:51:24.641Z,370
2018-02-09T13:52:33.522Z,380
2018-02-09T13:53:42.354Z,375
2018-02-09T13:54:51.186Z,365
2018-02-09T13:56:00.289Z,405
2018-02-09T13:57:09.121Z,370
2018-02-09T13:58:17.948Z,420
2018-02-09T13:59:26.778Z,415
2018-02-09T14:00:35.610Z,355
2018-02-09T14:01:44.442Z,345
2018-02-09T14:02:53.271Z,365
2018-02-09T14:04:02.253Z,375
2018-02-09T14:05:11.088Z,430
2018-02-09T14:06:19.918Z,530
2018-02-09T14:07:28.747Z,430
2018-02-09T14:08:37.579Z,435
2018-02-09T14:09:46.417Z,490
2018-02-09T14:10:55.239Z,505
2018-02-09T14:12:04.075Z,525
2018-02-09T14:13:12.902Z,505
2018-02-09T14:14:21.734Z,445
2018-02-09T14:15:30.685Z,455
2018-02-09T14:16:39.495Z,440
2018-02-09T14:17:48.326Z,465
2018-02-09T14:18:57.157Z,545
2018-02-09T14:20:05.988Z,415
2018-02-09T14:21:14.921Z,330
2018-02-09T14:22:23.753Z,340
2018-02-09T14:23:32.585Z,500
2018-02-09T14:24:41.420Z,690
2018-02-09T14:25:50.251Z,665
2018-02-09T14:26:59.331Z,670
2018-02-09T14:28:08.179Z,635
2018-02-09T14:29:17.011Z,635
2018-02-09T14:30:25.847Z,645
2018-02-09T14:31:34.769Z,675
2018-02-09T14:32:43.702Z,705
2018-02-09T14:33:52.542Z,715
2018-02-09T14:35:01.444Z,740
2018-02-09T14:36:10.427Z,705
2018-02-09T14:37:19.265Z,730
2018-02-09T14:38:28.148Z,675
2018-02-09T14:39:36.982Z,655
2018-02-09T14:40:45.817Z,670
2018-02-09T14:41:54.929Z,715
2018-02-09T14:43:03.771Z,680
2018-02-09T14:44:12.704Z,615
2018-02-09T14:45:21.540Z,545
2018-02-09T14:46:30.648Z,450
2018-02-09T14:47:39.486Z,520
2018-02-09T14:48:48.326Z,535
2018-02-09T14:49:57.167Z,490
2018-02-09T14:51:06.272Z,435
2018-02-09T14:52:15.111Z,450
2018-02-09T14:53:23.942Z,495
2018-02-09T14:54:32.776Z,430
2018-02-09T14:55:41.861Z,410
2018-02-09T14:56:50.695Z,365
2018-02-09T14:57:59.529Z,330
2018-02-09T14:59:08.813Z,325
2018-02-09T15:00:17.661Z,345
2018-02-09T15:01:26.750Z,360
2018-02-09T15:02:35.699Z,385
2018-02-09T15:03:44.844Z,405
2018-02-09T15:04:53.836Z,345
2018-02-09T15:06:03.005Z,305
2018-02-09T15:07:12.342Z,290
2018-02-09T15:08:21.275Z,265
2018-02-09T15:09:30.340Z,240
2018-02-09T15:10:39.412Z,245
2018-02-09T15:11:48.524Z,275
2018-02-09T15:12:57.455Z,305
2018-02-09T15:14:06.374Z,380
2018-02-09T15:15:15.353Z,335
2018-02-09T15:16:24.368Z,265
2018-02-09T15:17:33.555Z,300
2018-02-09T15:18:42.463Z,235
2018-02-09T15:19:51.642Z,240
2018-02-09T15:21:00.498Z,260
2018-02-09T15:22:09.618Z,265
2018-02-09T15:23:18.673Z,235
2018-02-09T15:24:27.506Z,255
2018-02-09T15:25:36.338Z,260
2018-02-09T15:26:45.171Z,205
2018-02-09T15:27:54.001Z,165
2018-02-09T15:29:02.834Z,155
2018-02-09T15:30:11.665Z,145
2018-02-09T15:31:20.495Z,140
2018-02-09T15:32:29.376Z,140
2018-02-09T15:33:38.211Z,130
2018-02-09T15:34:47.044Z,125
2018-02-09T15:35:56.117Z,125
2018-02-09T15:37:04.946Z,125
2018-02-09T15:38:13.929Z,125
2018-02-09T15:39:22.762Z,125
2018-02-09T15:40:31.600Z,120
2018-02-09T15:41:40.703Z,115
2018-02-09T15:42:49.535Z,115
2018-02-09T15:43:58.530Z,110
2018-02-09T15:45:07.593Z,105
2018-02-09T15:46:16.420Z,100
2018-02-09T15:47:25.248Z,95
2018-02-09T15:48:34.351Z,90
2018-02-09T15:49:43.240Z,80
2018-02-09T15:50:52.143Z,75
2018-02-09T15:52:00.973Z,70
2018-02-09T15:53:09.818Z,65
2018-02-09T15:54:18.650Z,60
2018-02-09T15:55:27.629Z,60
2018-02-09T15:56:36.464Z,55
2018-02-09T15:57:45.306Z,55
2018-02-09T15:58:54.164Z,50
2018-02-09T16:00:03.010Z,50
2018-02-09T16:01:11.939Z,45
2018-02-09T16:02:20.767Z,45
2018-02-09T16:03:29.595Z,40
2018-02-09T16:04:38.425Z,40
2018-02-09T16:05:47.524Z,35
2018-02-09T16:06:56.512Z,35
2018-02-09T16:08:05.341Z,35
2018-02-09T16:09:14.175Z,30
2018-02-09T16:10:23.004Z,30
2018-02-09T16:11:31.834Z,25
2018-02-09T16:12:40.666Z,25
2018-02-09T16:13:49.495Z,25
2018-02-09T16:14:58.321Z,20
2018-02-09T16:16:07.151Z,20
2018-02-09T16:17:16.253Z,20
2018-02-09T16:18:25.178Z,15
2018-02-09T16:19:34.005Z,15
2018-02-09T16:20:42.831Z,15